sensor_id;sensor_type;location;lat;lon;timestamp;P1;durP1;ratioP1;P2;durP2;ratioP2
75823;SDS011;64457;51.976;9.834;2024-03-22T00:00:22;36.40;;;16.37;;
75823;SDS011;64457;51.976;9.834;2024-03-22T00:02:50;32.53;;;16.40;;
75823;SDS011;64457;51.976;9.834;2024-03-22T00:05:17;33.83;;;16.87;;
75823;SDS011;64457;51.976;9.834;2024-03-22T00:07:43;29.33;;;16.73;;
75823;SDS011;64457;51.976;9.834;2024-03-22T00:10:11;31.40;;;16.70;;
75823;SDS011;64457;51.976;9.834;2024-03-22T00:12:38;32.00;;;18.60;;
75823;SDS011;64457;51.976;9.834;2024-03-22T00:15:06;30.80;;;17.23;;
75823;SDS011;64457;51.976;9.834;2024-03-22T00:17:33;29.50;;;16.90;;
75823;SDS011;64457;51.976;9.834;2024-03-22T00:20:02;31.17;;;17.20;;
75823;SDS011;64457;51.976;9.834;2024-03-22T00:22:29;28.23;;;14.37;;
75823;SDS011;64457;51.976;9.834;2024-03-22T00:24:57;25.80;;;14.97;;
75823;SDS011;64457;51.976;9.834;2024-03-22T00:27:23;27.40;;;15.00;;
75823;SDS011;64457;51.976;9.834;2024-03-22T00:29:51;27.50;;;16.13;;
75823;SDS011;64457;51.976;9.834;2024-03-22T00:32:17;31.80;;;16.63;;
75823;SDS011;64457;51.976;9.834;2024-03-22T00:34:44;27.67;;;16.13;;
75823;SDS011;64457;51.976;9.834;2024-03-22T00:37:12;35.00;;;16.40;;
75823;SDS011;64457;51.976;9.834;2024-03-22T00:39:40;29.60;;;15.57;;
75823;SDS011;64457;51.976;9.834;2024-03-22T00:42:06;29.17;;;16.27;;
75823;SDS011;64457;51.976;9.834;2024-03-22T00:44:33;32.63;;;17.90;;
75823;SDS011;64457;51.976;9.834;2024-03-22T00:47:00;27.50;;;17.03;;
75823;SDS011;64457;51.976;9.834;2024-03-22T00:49:28;29.70;;;16.73;;
75823;SDS011;64457;51.976;9.834;2024-03-22T00:51:54;29.03;;;17.03;;
75823;SDS011;64457;51.976;9.834;2024-03-22T00:54:23;31.13;;;15.93;;
75823;SDS011;64457;51.976;9.834;2024-03-22T00:56:50;29.37;;;17.30;;
75823;SDS011;64457;51.976;9.834;2024-03-22T00:59:17;31.83;;;17.33;;
75823;SDS011;64457;51.976;9.834;2024-03-22T01:01:43;35.83;;;18.33;;
75823;SDS011;64457;51.976;9.834;2024-03-22T01:04:11;32.20;;;17.20;;
75823;SDS011;64457;51.976;9.834;2024-03-22T01:06:37;35.47;;;18.37;;
75823;SDS011;64457;51.976;9.834;2024-03-22T01:09:05;32.10;;;18.27;;
75823;SDS011;64457;51.976;9.834;2024-03-22T01:11:33;30.73;;;18.13;;
75823;SDS011;64457;51.976;9.834;2024-03-22T01:14:00;33.27;;;19.07;;
75823;SDS011;64457;51.976;9.834;2024-03-22T01:16:27;29.33;;;17.50;;
75823;SDS011;64457;51.976;9.834;2024-03-22T01:18:54;32.53;;;18.53;;
75823;SDS011;64457;51.976;9.834;2024-03-22T01:21:21;33.33;;;18.30;;
75823;SDS011;64457;51.976;9.834;2024-03-22T01:23:50;31.80;;;18.50;;
75823;SDS011;64457;51.976;9.834;2024-03-22T01:26:18;31.40;;;17.90;;
75823;SDS011;64457;51.976;9.834;2024-03-22T01:28:46;38.93;;;19.90;;
75823;SDS011;64457;51.976;9.834;2024-03-22T01:31:13;38.60;;;20.03;;
75823;SDS011;64457;51.976;9.834;2024-03-22T01:33:41;32.70;;;19.17;;
75823;SDS011;64457;51.976;9.834;2024-03-22T01:36:08;36.23;;;19.80;;
75823;SDS011;64457;51.976;9.834;2024-03-22T01:38:35;36.97;;;19.90;;
75823;SDS011;64457;51.976;9.834;2024-03-22T01:41:02;32.60;;;19.57;;
75823;SDS011;64457;51.976;9.834;2024-03-22T01:43:29;36.20;;;20.90;;
75823;SDS011;64457;51.976;9.834;2024-03-22T01:45:57;35.43;;;20.03;;
75823;SDS011;64457;51.976;9.834;2024-03-22T01:48:24;32.80;;;19.10;;
75823;SDS011;64457;51.976;9.834;2024-03-22T01:50:51;31.10;;;17.53;;
75823;SDS011;64457;51.976;9.834;2024-03-22T01:53:18;30.37;;;18.03;;
75823;SDS011;64457;51.976;9.834;2024-03-22T01:55:47;31.20;;;18.07;;
75823;SDS011;64457;51.976;9.834;2024-03-22T01:58:13;34.53;;;16.93;;
75823;SDS011;64457;51.976;9.834;2024-03-22T02:00:41;34.03;;;18.37;;
75823;SDS011;64457;51.976;9.834;2024-03-22T02:03:08;37.63;;;18.37;;
75823;SDS011;64457;51.976;9.834;2024-03-22T02:05:36;35.47;;;18.20;;
75823;SDS011;64457;51.976;9.834;2024-03-22T02:08:06;33.80;;;18.57;;
75823;SDS011;64457;51.976;9.834;2024-03-22T02:10:33;33.53;;;18.20;;
75823;SDS011;64457;51.976;9.834;2024-03-22T02:12:59;29.93;;;17.03;;
75823;SDS011;64457;51.976;9.834;2024-03-22T02:15:27;32.80;;;18.47;;
75823;SDS011;64457;51.976;9.834;2024-03-22T02:17:53;33.43;;;18.03;;
75823;SDS011;64457;51.976;9.834;2024-03-22T02:20:22;32.23;;;18.40;;
75823;SDS011;64457;51.976;9.834;2024-03-22T02:22:48;31.23;;;17.40;;
75823;SDS011;64457;51.976;9.834;2024-03-22T02:25:17;33.40;;;19.10;;
75823;SDS011;64457;51.976;9.834;2024-03-22T02:27:43;33.13;;;17.80;;
75823;SDS011;64457;51.976;9.834;2024-03-22T02:30:15;33.00;;;18.30;;
75823;SDS011;64457;51.976;9.834;2024-03-22T02:32:42;29.93;;;17.70;;
75823;SDS011;64457;51.976;9.834;2024-03-22T02:35:09;31.60;;;17.90;;
75823;SDS011;64457;51.976;9.834;2024-03-22T02:37:36;34.03;;;17.87;;
75823;SDS011;64457;51.976;9.834;2024-03-22T02:40:04;29.80;;;17.40;;
75823;SDS011;64457;51.976;9.834;2024-03-22T02:42:33;32.93;;;17.73;;
75823;SDS011;64457;51.976;9.834;2024-03-22T02:45:01;33.53;;;18.43;;
75823;SDS011;64457;51.976;9.834;2024-03-22T02:47:27;33.00;;;18.00;;
75823;SDS011;64457;51.976;9.834;2024-03-22T02:49:54;28.77;;;16.57;;
75823;SDS011;64457;51.976;9.834;2024-03-22T02:52:21;31.27;;;17.67;;
75823;SDS011;64457;51.976;9.834;2024-03-22T02:54:48;29.30;;;16.20;;
75823;SDS011;64457;51.976;9.834;2024-03-22T02:57:14;29.20;;;16.50;;
75823;SDS011;64457;51.976;9.834;2024-03-22T02:59:43;27.43;;;16.57;;
75823;SDS011;64457;51.976;9.834;2024-03-22T03:02:09;28.30;;;15.90;;
75823;SDS011;64457;51.976;9.834;2024-03-22T03:04:37;29.20;;;16.13;;
75823;SDS011;64457;51.976;9.834;2024-03-22T03:07:03;35.67;;;16.50;;
75823;SDS011;64457;51.976;9.834;2024-03-22T03:09:31;30.93;;;16.57;;
75823;SDS011;64457;51.976;9.834;2024-03-22T03:11:57;27.23;;;16.40;;
75823;SDS011;64457;51.976;9.834;2024-03-22T03:14:24;27.13;;;16.47;;
75823;SDS011;64457;51.976;9.834;2024-03-22T03:16:52;28.20;;;16.77;;
75823;SDS011;64457;51.976;9.834;2024-03-22T03:19:19;34.33;;;17.70;;
75823;SDS011;64457;51.976;9.834;2024-03-22T03:21:46;32.67;;;17.73;;
75823;SDS011;64457;51.976;9.834;2024-03-22T03:24:13;32.90;;;17.77;;
75823;SDS011;64457;51.976;9.834;2024-03-22T03:26:39;30.97;;;17.87;;
75823;SDS011;64457;51.976;9.834;2024-03-22T03:29:07;29.93;;;17.43;;
75823;SDS011;64457;51.976;9.834;2024-03-22T03:31:34;29.53;;;16.83;;
75823;SDS011;64457;51.976;9.834;2024-03-22T03:34:02;31.50;;;16.40;;
75823;SDS011;64457;51.976;9.834;2024-03-22T03:36:28;31.17;;;16.47;;
75823;SDS011;64457;51.976;9.834;2024-03-22T03:38:56;30.67;;;17.23;;
75823;SDS011;64457;51.976;9.834;2024-03-22T03:41:23;35.57;;;17.93;;
75823;SDS011;64457;51.976;9.834;2024-03-22T03:43:50;32.80;;;17.60;;
75823;SDS011;64457;51.976;9.834;2024-03-22T03:46:17;32.63;;;17.50;;
75823;SDS011;64457;51.976;9.834;2024-03-22T03:48:44;29.97;;;16.67;;
75823;SDS011;64457;51.976;9.834;2024-03-22T03:51:12;30.90;;;16.77;;
75823;SDS011;64457;51.976;9.834;2024-03-22T03:53:39;31.63;;;15.97;;
75823;SDS011;64457;51.976;9.834;2024-03-22T03:56:05;29.70;;;16.10;;
75823;SDS011;64457;51.976;9.834;2024-03-22T03:58:33;30.23;;;16.90;;
75823;SDS011;64457;51.976;9.834;2024-03-22T04:00:59;31.57;;;16.53;;
75823;SDS011;64457;51.976;9.834;2024-03-22T04:03:32;28.23;;;17.13;;
75823;SDS011;64457;51.976;9.834;2024-03-22T04:05:59;28.87;;;16.17;;
75823;SDS011;64457;51.976;9.834;2024-03-22T04:08:29;28.80;;;16.47;;
75823;SDS011;64457;51.976;9.834;2024-03-22T04:10:56;28.50;;;15.50;;
75823;SDS011;64457;51.976;9.834;2024-03-22T04:13:24;28.60;;;16.37;;
75823;SDS011;64457;51.976;9.834;2024-03-22T04:15:51;27.70;;;15.37;;
75823;SDS011;64457;51.976;9.834;2024-03-22T04:18:19;30.50;;;15.43;;
75823;SDS011;64457;51.976;9.834;2024-03-22T04:20:52;30.27;;;17.40;;
75823;SDS011;64457;51.976;9.834;2024-03-22T04:23:20;28.70;;;15.83;;
75823;SDS011;64457;51.976;9.834;2024-03-22T04:25:52;32.80;;;16.90;;
75823;SDS011;64457;51.976;9.834;2024-03-22T04:28:21;28.23;;;16.80;;
75823;SDS011;64457;51.976;9.834;2024-03-22T04:30:54;30.77;;;16.67;;
75823;SDS011;64457;51.976;9.834;2024-03-22T04:33:23;32.60;;;17.30;;
75823;SDS011;64457;51.976;9.834;2024-03-22T04:35:49;33.53;;;16.83;;
75823;SDS011;64457;51.976;9.834;2024-03-22T04:38:17;28.07;;;16.47;;
75823;SDS011;64457;51.976;9.834;2024-03-22T04:40:47;33.07;;;17.17;;
75823;SDS011;64457;51.976;9.834;2024-03-22T04:43:15;32.07;;;17.90;;
75823;SDS011;64457;51.976;9.834;2024-03-22T04:45:42;29.53;;;16.37;;
75823;SDS011;64457;51.976;9.834;2024-03-22T04:48:10;30.13;;;16.27;;
75823;SDS011;64457;51.976;9.834;2024-03-22T04:50:38;30.23;;;15.80;;
75823;SDS011;64457;51.976;9.834;2024-03-22T04:53:06;31.37;;;17.13;;
75823;SDS011;64457;51.976;9.834;2024-03-22T04:55:32;31.53;;;16.80;;
75823;SDS011;64457;51.976;9.834;2024-03-22T04:58:00;31.90;;;16.83;;
75823;SDS011;64457;51.976;9.834;2024-03-22T05:00:28;29.47;;;16.97;;
75823;SDS011;64457;51.976;9.834;2024-03-22T05:02:55;36.60;;;17.20;;
75823;SDS011;64457;51.976;9.834;2024-03-22T05:05:22;31.47;;;16.60;;
75823;SDS011;64457;51.976;9.834;2024-03-22T05:07:51;32.63;;;17.57;;
75823;SDS011;64457;51.976;9.834;2024-03-22T05:10:18;38.53;;;18.00;;
75823;SDS011;64457;51.976;9.834;2024-03-22T05:12:45;30.63;;;16.90;;
75823;SDS011;64457;51.976;9.834;2024-03-22T05:15:11;35.07;;;17.70;;
75823;SDS011;64457;51.976;9.834;2024-03-22T05:17:40;37.00;;;19.20;;
75823;SDS011;64457;51.976;9.834;2024-03-22T05:20:08;36.27;;;17.60;;
75823;SDS011;64457;51.976;9.834;2024-03-22T05:22:37;34.33;;;17.47;;
75823;SDS011;64457;51.976;9.834;2024-03-22T05:25:03;38.20;;;18.60;;
75823;SDS011;64457;51.976;9.834;2024-03-22T05:27:32;33.53;;;18.37;;
75823;SDS011;64457;51.976;9.834;2024-03-22T05:29:59;37.73;;;18.00;;
75823;SDS011;64457;51.976;9.834;2024-03-22T05:32:27;40.23;;;19.83;;
75823;SDS011;64457;51.976;9.834;2024-03-22T05:34:54;37.80;;;18.60;;
75823;SDS011;64457;51.976;9.834;2024-03-22T05:37:22;35.50;;;18.00;;
75823;SDS011;64457;51.976;9.834;2024-03-22T05:39:49;44.20;;;19.57;;
75823;SDS011;64457;51.976;9.834;2024-03-22T05:42:16;40.83;;;19.40;;
75823;SDS011;64457;51.976;9.834;2024-03-22T05:44:44;38.60;;;19.33;;
75823;SDS011;64457;51.976;9.834;2024-03-22T05:47:11;36.63;;;18.53;;
75823;SDS011;64457;51.976;9.834;2024-03-22T05:49:37;36.43;;;18.00;;
75823;SDS011;64457;51.976;9.834;2024-03-22T05:52:06;33.50;;;18.20;;
75823;SDS011;64457;51.976;9.834;2024-03-22T05:54:33;38.97;;;19.40;;
75823;SDS011;64457;51.976;9.834;2024-03-22T05:57:01;37.40;;;18.93;;
75823;SDS011;64457;51.976;9.834;2024-03-22T05:59:29;35.10;;;18.50;;
75823;SDS011;64457;51.976;9.834;2024-03-22T06:01:56;38.47;;;20.07;;
75823;SDS011;64457;51.976;9.834;2024-03-22T06:04:22;39.37;;;18.90;;
75823;SDS011;64457;51.976;9.834;2024-03-22T06:06:50;36.67;;;18.20;;
75823;SDS011;64457;51.976;9.834;2024-03-22T06:09:18;40.57;;;20.20;;
75823;SDS011;64457;51.976;9.834;2024-03-22T06:11:49;35.93;;;18.73;;
75823;SDS011;64457;51.976;9.834;2024-03-22T06:14:15;40.77;;;19.53;;
75823;SDS011;64457;51.976;9.834;2024-03-22T06:16:43;39.97;;;19.50;;
75823;SDS011;64457;51.976;9.834;2024-03-22T06:19:10;43.40;;;18.77;;
75823;SDS011;64457;51.976;9.834;2024-03-22T06:21:37;37.47;;;18.43;;
75823;SDS011;64457;51.976;9.834;2024-03-22T06:24:04;39.13;;;19.80;;
75823;SDS011;64457;51.976;9.834;2024-03-22T06:26:33;41.83;;;20.10;;
75823;SDS011;64457;51.976;9.834;2024-03-22T06:28:59;37.73;;;18.73;;
75823;SDS011;64457;51.976;9.834;2024-03-22T06:31:27;43.00;;;20.60;;
75823;SDS011;64457;51.976;9.834;2024-03-22T06:33:54;37.10;;;18.47;;
75823;SDS011;64457;51.976;9.834;2024-03-22T06:36:27;42.73;;;21.00;;
75823;SDS011;64457;51.976;9.834;2024-03-22T06:38:54;35.93;;;19.03;;
75823;SDS011;64457;51.976;9.834;2024-03-22T06:41:22;37.20;;;18.87;;
75823;SDS011;64457;51.976;9.834;2024-03-22T06:43:50;39.90;;;19.67;;
75823;SDS011;64457;51.976;9.834;2024-03-22T06:46:17;35.53;;;19.43;;
75823;SDS011;64457;51.976;9.834;2024-03-22T06:48:43;41.07;;;19.93;;
75823;SDS011;64457;51.976;9.834;2024-03-22T06:51:11;36.93;;;18.17;;
75823;SDS011;64457;51.976;9.834;2024-03-22T06:53:38;37.90;;;19.10;;
75823;SDS011;64457;51.976;9.834;2024-03-22T06:56:05;37.47;;;19.40;;
75823;SDS011;64457;51.976;9.834;2024-03-22T06:58:34;37.77;;;19.37;;
75823;SDS011;64457;51.976;9.834;2024-03-22T07:01:04;35.93;;;18.37;;
75823;SDS011;64457;51.976;9.834;2024-03-22T07:03:31;37.83;;;18.30;;
75823;SDS011;64457;51.976;9.834;2024-03-22T07:05:58;36.13;;;18.87;;
75823;SDS011;64457;51.976;9.834;2024-03-22T07:08:26;34.83;;;18.20;;
75823;SDS011;64457;51.976;9.834;2024-03-22T07:10:53;40.40;;;19.67;;
75823;SDS011;64457;51.976;9.834;2024-03-22T07:13:20;33.80;;;18.30;;
75823;SDS011;64457;51.976;9.834;2024-03-22T07:15:50;37.00;;;19.43;;
75823;SDS011;64457;51.976;9.834;2024-03-22T07:18:17;35.47;;;18.63;;
75823;SDS011;64457;51.976;9.834;2024-03-22T07:20:45;39.07;;;18.77;;
75823;SDS011;64457;51.976;9.834;2024-03-22T07:23:13;35.90;;;18.40;;
75823;SDS011;64457;51.976;9.834;2024-03-22T07:25:40;39.80;;;19.13;;
75823;SDS011;64457;51.976;9.834;2024-03-22T07:28:10;33.47;;;17.73;;
75823;SDS011;64457;51.976;9.834;2024-03-22T07:30:38;34.00;;;17.57;;
75823;SDS011;64457;51.976;9.834;2024-03-22T07:33:04;34.33;;;17.37;;
75823;SDS011;64457;51.976;9.834;2024-03-22T07:35:35;32.97;;;17.07;;
75823;SDS011;64457;51.976;9.834;2024-03-22T07:38:02;37.60;;;17.87;;
75823;SDS011;64457;51.976;9.834;2024-03-22T07:40:30;28.63;;;16.30;;
75823;SDS011;64457;51.976;9.834;2024-03-22T07:42:56;35.03;;;17.40;;
75823;SDS011;64457;51.976;9.834;2024-03-22T07:45:24;32.03;;;15.73;;
75823;SDS011;64457;51.976;9.834;2024-03-22T07:47:51;28.20;;;16.50;;
75823;SDS011;64457;51.976;9.834;2024-03-22T07:50:18;36.23;;;18.03;;
75823;SDS011;64457;51.976;9.834;2024-03-22T07:52:46;31.37;;;16.90;;
75823;SDS011;64457;51.976;9.834;2024-03-22T07:55:13;31.90;;;16.30;;
75823;SDS011;64457;51.976;9.834;2024-03-22T07:57:40;31.83;;;16.43;;
75823;SDS011;64457;51.976;9.834;2024-03-22T08:00:08;40.03;;;16.77;;
75823;SDS011;64457;51.976;9.834;2024-03-22T08:02:35;29.50;;;16.97;;
75823;SDS011;64457;51.976;9.834;2024-03-22T08:05:03;34.73;;;17.20;;
75823;SDS011;64457;51.976;9.834;2024-03-22T08:07:30;29.90;;;15.70;;
75823;SDS011;64457;51.976;9.834;2024-03-22T08:09:59;31.07;;;17.07;;
75823;SDS011;64457;51.976;9.834;2024-03-22T08:12:27;34.53;;;16.17;;
75823;SDS011;64457;51.976;9.834;2024-03-22T08:14:54;31.97;;;16.37;;
75823;SDS011;64457;51.976;9.834;2024-03-22T08:17:21;33.93;;;17.20;;
75823;SDS011;64457;51.976;9.834;2024-03-22T08:19:48;33.47;;;15.97;;
75823;SDS011;64457;51.976;9.834;2024-03-22T08:22:15;34.03;;;16.50;;
75823;SDS011;64457;51.976;9.834;2024-03-22T08:24:42;36.03;;;17.60;;
75823;SDS011;64457;51.976;9.834;2024-03-22T08:27:10;33.73;;;16.20;;
75823;SDS011;64457;51.976;9.834;2024-03-22T08:29:39;34.33;;;17.40;;
75823;SDS011;64457;51.976;9.834;2024-03-22T08:32:06;31.60;;;16.00;;
75823;SDS011;64457;51.976;9.834;2024-03-22T08:34:34;34.47;;;16.83;;
75823;SDS011;64457;51.976;9.834;2024-03-22T08:37:00;31.00;;;16.73;;
75823;SDS011;64457;51.976;9.834;2024-03-22T08:39:29;35.67;;;16.60;;
75823;SDS011;64457;51.976;9.834;2024-03-22T08:41:55;34.03;;;17.50;;
75823;SDS011;64457;51.976;9.834;2024-03-22T08:44:24;31.77;;;16.93;;
75823;SDS011;64457;51.976;9.834;2024-03-22T08:46:52;30.83;;;16.10;;
75823;SDS011;64457;51.976;9.834;2024-03-22T08:49:19;39.43;;;17.87;;
75823;SDS011;64457;51.976;9.834;2024-03-22T08:51:46;33.27;;;16.00;;
75823;SDS011;64457;51.976;9.834;2024-03-22T08:54:13;33.70;;;16.27;;
75823;SDS011;64457;51.976;9.834;2024-03-22T08:56:40;27.43;;;14.90;;
75823;SDS011;64457;51.976;9.834;2024-03-22T08:59:07;19.40;;;11.07;;
75823;SDS011;64457;51.976;9.834;2024-03-22T09:01:35;19.97;;;10.80;;
75823;SDS011;64457;51.976;9.834;2024-03-22T09:04:03;19.70;;;10.87;;
75823;SDS011;64457;51.976;9.834;2024-03-22T09:06:29;17.07;;;9.97;;
75823;SDS011;64457;51.976;9.834;2024-03-22T09:08:57;20.03;;;10.70;;
75823;SDS011;64457;51.976;9.834;2024-03-22T09:11:23;19.80;;;10.17;;
75823;SDS011;64457;51.976;9.834;2024-03-22T09:13:51;24.70;;;9.73;;
75823;SDS011;64457;51.976;9.834;2024-03-22T09:16:18;15.23;;;9.03;;
75823;SDS011;64457;51.976;9.834;2024-03-22T09:18:47;15.40;;;9.23;;
75823;SDS011;64457;51.976;9.834;2024-03-22T09:21:14;19.40;;;10.47;;
75823;SDS011;64457;51.976;9.834;2024-03-22T09:23:41;17.17;;;9.70;;
75823;SDS011;64457;51.976;9.834;2024-03-22T09:26:08;17.87;;;10.20;;
75823;SDS011;64457;51.976;9.834;2024-03-22T09:28:35;18.07;;;9.60;;
75823;SDS011;64457;51.976;9.834;2024-03-22T09:31:05;17.37;;;9.50;;
75823;SDS011;64457;51.976;9.834;2024-03-22T09:33:32;17.57;;;9.73;;
75823;SDS011;64457;51.976;9.834;2024-03-22T09:36:01;21.47;;;10.10;;
75823;SDS011;64457;51.976;9.834;2024-03-22T09:38:28;17.30;;;9.50;;
75823;SDS011;64457;51.976;9.834;2024-03-22T09:40:55;17.47;;;9.70;;
75823;SDS011;64457;51.976;9.834;2024-03-22T09:43:22;17.90;;;9.73;;
75823;SDS011;64457;51.976;9.834;2024-03-22T09:45:49;16.67;;;9.87;;
75823;SDS011;64457;51.976;9.834;2024-03-22T09:48:17;17.77;;;9.53;;
75823;SDS011;64457;51.976;9.834;2024-03-22T09:50:44;17.53;;;9.23;;
75823;SDS011;64457;51.976;9.834;2024-03-22T09:53:15;18.27;;;9.47;;
75823;SDS011;64457;51.976;9.834;2024-03-22T09:55:44;16.20;;;9.10;;
75823;SDS011;64457;51.976;9.834;2024-03-22T09:58:13;18.53;;;9.30;;
75823;SDS011;64457;51.976;9.834;2024-03-22T10:00:42;18.57;;;10.50;;
75823;SDS011;64457;51.976;9.834;2024-03-22T10:03:10;14.73;;;9.27;;
75823;SDS011;64457;51.976;9.834;2024-03-22T10:05:37;15.70;;;8.63;;
75823;SDS011;64457;51.976;9.834;2024-03-22T10:08:04;17.30;;;9.40;;
75823;SDS011;64457;51.976;9.834;2024-03-22T10:10:32;17.20;;;9.50;;
75823;SDS011;64457;51.976;9.834;2024-03-22T10:13:00;18.33;;;8.80;;
75823;SDS011;64457;51.976;9.834;2024-03-22T10:15:27;17.40;;;9.23;;
75823;SDS011;64457;51.976;9.834;2024-03-22T10:17:56;17.40;;;9.43;;
75823;SDS011;64457;51.976;9.834;2024-03-22T10:20:23;16.03;;;9.17;;
75823;SDS011;64457;51.976;9.834;2024-03-22T10:22:55;16.43;;;8.87;;
75823;SDS011;64457;51.976;9.834;2024-03-22T10:25:23;17.97;;;10.27;;
75823;SDS011;64457;51.976;9.834;2024-03-22T10:27:53;16.13;;;8.80;;
75823;SDS011;64457;51.976;9.834;2024-03-22T10:30:20;17.87;;;9.07;;
75823;SDS011;64457;51.976;9.834;2024-03-22T10:32:49;15.93;;;8.87;;
75823;SDS011;64457;51.976;9.834;2024-03-22T10:35:15;13.40;;;8.00;;
75823;SDS011;64457;51.976;9.834;2024-03-22T10:37:43;13.27;;;8.40;;
75823;SDS011;64457;51.976;9.834;2024-03-22T10:40:10;14.10;;;8.53;;
75823;SDS011;64457;51.976;9.834;2024-03-22T10:42:40;14.33;;;8.10;;
75823;SDS011;64457;51.976;9.834;2024-03-22T10:45:09;14.30;;;8.30;;
75823;SDS011;64457;51.976;9.834;2024-03-22T10:47:39;15.73;;;8.37;;
75823;SDS011;64457;51.976;9.834;2024-03-22T10:50:06;19.30;;;9.60;;
75823;SDS011;64457;51.976;9.834;2024-03-22T10:52:37;13.30;;;7.83;;
75823;SDS011;64457;51.976;9.834;2024-03-22T10:55:12;13.77;;;8.23;;
75823;SDS011;64457;51.976;9.834;2024-03-22T10:57:47;13.00;;;7.83;;
75823;SDS011;64457;51.976;9.834;2024-03-22T11:00:17;14.93;;;8.60;;
75823;SDS011;64457;51.976;9.834;2024-03-22T11:02:55;12.33;;;7.70;;
75823;SDS011;64457;51.976;9.834;2024-03-22T11:05:23;16.97;;;7.80;;
75823;SDS011;64457;51.976;9.834;2024-03-22T11:08:02;16.33;;;8.27;;
75823;SDS011;64457;51.976;9.834;2024-03-22T11:10:30;12.10;;;7.33;;
75823;SDS011;64457;51.976;9.834;2024-03-22T11:13:00;12.27;;;7.07;;
75823;SDS011;64457;51.976;9.834;2024-03-22T11:15:29;13.80;;;7.70;;
75823;SDS011;64457;51.976;9.834;2024-03-22T11:17:57;11.57;;;7.37;;
75823;SDS011;64457;51.976;9.834;2024-03-22T11:20:24;15.70;;;7.77;;
75823;SDS011;64457;51.976;9.834;2024-03-22T11:22:52;13.20;;;7.20;;
75823;SDS011;64457;51.976;9.834;2024-03-22T11:25:18;12.93;;;7.70;;
75823;SDS011;64457;51.976;9.834;2024-03-22T11:27:46;13.93;;;8.07;;
75823;SDS011;64457;51.976;9.834;2024-03-22T11:30:12;12.97;;;7.13;;
75823;SDS011;64457;51.976;9.834;2024-03-22T11:32:43;17.00;;;7.60;;
75823;SDS011;64457;51.976;9.834;2024-03-22T11:35:11;14.30;;;7.63;;
75823;SDS011;64457;51.976;9.834;2024-03-22T11:37:39;14.57;;;7.77;;
75823;SDS011;64457;51.976;9.834;2024-03-22T11:40:08;12.60;;;7.10;;
75823;SDS011;64457;51.976;9.834;2024-03-22T11:42:37;12.30;;;6.90;;
75823;SDS011;64457;51.976;9.834;2024-03-22T11:45:05;11.93;;;7.23;;
75823;SDS011;64457;51.976;9.834;2024-03-22T11:47:35;11.33;;;7.03;;
75823;SDS011;64457;51.976;9.834;2024-03-22T11:50:04;14.90;;;6.40;;
75823;SDS011;64457;51.976;9.834;2024-03-22T11:52:34;10.40;;;6.13;;
75823;SDS011;64457;51.976;9.834;2024-03-22T11:55:00;10.77;;;6.43;;
75823;SDS011;64457;51.976;9.834;2024-03-22T11:57:28;9.63;;;6.13;;
75823;SDS011;64457;51.976;9.834;2024-03-22T11:59:58;10.30;;;6.30;;
75823;SDS011;64457;51.976;9.834;2024-03-22T12:02:27;10.77;;;5.50;;
75823;SDS011;64457;51.976;9.834;2024-03-22T12:04:54;14.40;;;5.57;;
75823;SDS011;64457;51.976;9.834;2024-03-22T12:07:23;10.33;;;5.87;;
75823;SDS011;64457;51.976;9.834;2024-03-22T12:09:50;11.67;;;6.03;;
75823;SDS011;64457;51.976;9.834;2024-03-22T12:12:18;10.10;;;5.60;;
75823;SDS011;64457;51.976;9.834;2024-03-22T12:14:48;11.07;;;5.93;;
75823;SDS011;64457;51.976;9.834;2024-03-22T12:17:16;10.23;;;6.30;;
75823;SDS011;64457;51.976;9.834;2024-03-22T12:19:43;11.83;;;6.23;;
75823;SDS011;64457;51.976;9.834;2024-03-22T12:22:10;8.27;;;5.40;;
75823;SDS011;64457;51.976;9.834;2024-03-22T12:24:38;9.90;;;6.27;;
75823;SDS011;64457;51.976;9.834;2024-03-22T12:27:06;10.33;;;5.50;;
75823;SDS011;64457;51.976;9.834;2024-03-22T12:29:33;10.80;;;5.53;;
75823;SDS011;64457;51.976;9.834;2024-03-22T12:32:01;10.03;;;6.00;;
75823;SDS011;64457;51.976;9.834;2024-03-22T12:34:29;12.60;;;6.00;;
75823;SDS011;64457;51.976;9.834;2024-03-22T12:36:57;9.30;;;5.93;;
75823;SDS011;64457;51.976;9.834;2024-03-22T12:39:24;8.93;;;5.37;;
75823;SDS011;64457;51.976;9.834;2024-03-22T12:41:53;14.27;;;6.90;;
75823;SDS011;64457;51.976;9.834;2024-03-22T12:44:21;11.80;;;7.10;;
75823;SDS011;64457;51.976;9.834;2024-03-22T12:46:49;9.70;;;6.97;;
75823;SDS011;64457;51.976;9.834;2024-03-22T12:49:16;11.60;;;7.90;;
75823;SDS011;64457;51.976;9.834;2024-03-22T12:51:44;13.13;;;8.50;;
75823;SDS011;64457;51.976;9.834;2024-03-22T12:54:11;11.73;;;7.47;;
75823;SDS011;64457;51.976;9.834;2024-03-22T12:56:39;13.20;;;7.73;;
75823;SDS011;64457;51.976;9.834;2024-03-22T12:59:07;16.23;;;7.77;;
75823;SDS011;64457;51.976;9.834;2024-03-22T13:01:35;14.20;;;7.73;;
75823;SDS011;64457;51.976;9.834;2024-03-22T13:04:02;10.87;;;7.50;;
75823;SDS011;64457;51.976;9.834;2024-03-22T13:06:30;16.57;;;8.60;;
75823;SDS011;64457;51.976;9.834;2024-03-22T13:08:56;14.57;;;8.07;;
75823;SDS011;64457;51.976;9.834;2024-03-22T13:11:24;14.43;;;7.83;;
75823;SDS011;64457;51.976;9.834;2024-03-22T13:13:50;13.23;;;7.90;;
75823;SDS011;64457;51.976;9.834;2024-03-22T13:16:20;16.93;;;9.30;;
75823;SDS011;64457;51.976;9.834;2024-03-22T13:18:48;12.73;;;8.10;;
75823;SDS011;64457;51.976;9.834;2024-03-22T13:21:15;12.77;;;7.70;;
75823;SDS011;64457;51.976;9.834;2024-03-22T13:23:42;17.50;;;8.80;;
75823;SDS011;64457;51.976;9.834;2024-03-22T13:26:09;12.70;;;7.40;;
75823;SDS011;64457;51.976;9.834;2024-03-22T13:28:36;14.33;;;7.70;;
75823;SDS011;64457;51.976;9.834;2024-03-22T13:31:03;13.23;;;8.90;;
75823;SDS011;64457;51.976;9.834;2024-03-22T13:33:33;15.77;;;8.23;;
75823;SDS011;64457;51.976;9.834;2024-03-22T13:36:01;17.50;;;8.80;;
75823;SDS011;64457;51.976;9.834;2024-03-22T13:38:30;16.97;;;9.07;;
75823;SDS011;64457;51.976;9.834;2024-03-22T13:41:00;16.53;;;10.30;;
75823;SDS011;64457;51.976;9.834;2024-03-22T13:43:29;16.43;;;9.50;;
75823;SDS011;64457;51.976;9.834;2024-03-22T13:45:56;14.50;;;9.77;;
75823;SDS011;64457;51.976;9.834;2024-03-22T13:48:24;14.37;;;9.00;;
75823;SDS011;64457;51.976;9.834;2024-03-22T13:50:53;15.00;;;8.53;;
75823;SDS011;64457;51.976;9.834;2024-03-22T13:53:20;16.17;;;9.83;;
75823;SDS011;64457;51.976;9.834;2024-03-22T13:55:48;15.83;;;9.93;;
75823;SDS011;64457;51.976;9.834;2024-03-22T13:58:17;19.43;;;10.07;;
75823;SDS011;64457;51.976;9.834;2024-03-22T14:00:45;15.40;;;9.50;;
75823;SDS011;64457;51.976;9.834;2024-03-22T14:03:11;21.03;;;9.57;;
75823;SDS011;64457;51.976;9.834;2024-03-22T14:05:38;14.80;;;9.23;;
75823;SDS011;64457;51.976;9.834;2024-03-22T14:08:06;20.97;;;10.27;;
75823;SDS011;64457;51.976;9.834;2024-03-22T14:10:34;19.60;;;10.03;;
75823;SDS011;64457;51.976;9.834;2024-03-22T14:13:00;15.83;;;9.87;;
75823;SDS011;64457;51.976;9.834;2024-03-22T14:15:29;16.57;;;9.70;;
75823;SDS011;64457;51.976;9.834;2024-03-22T14:17:57;22.10;;;12.00;;
75823;SDS011;64457;51.976;9.834;2024-03-22T14:20:25;18.30;;;9.90;;
75823;SDS011;64457;51.976;9.834;2024-03-22T14:22:51;21.30;;;10.77;;
75823;SDS011;64457;51.976;9.834;2024-03-22T14:25:20;16.83;;;10.70;;
75823;SDS011;64457;51.976;9.834;2024-03-22T14:27:47;22.73;;;12.87;;